Rechercher aéroport 
image banner adimage banner adimage banner ad
image banner ad

0Q9 - Sonoma Skypark

Situé à Sonoma, United States

ICAO - 0Q9, IATA -

Données fournies par Airmate  

Information générale

Coordonnées: N38°15'27" W122°26'3"
Élévation : 20 feet MSL.
Variation magnétique : 16° East
Voir autres Aéroports à California

Données opérationnelles

Special qualification required
Heure actuelle UTC:
Heure actuelle locale:
Météo à : KAPC - Napa County ( 14 km )
METAR: KAPC 251618Z 22006KT 10SM SCT008 16/12 A2997 RMK AO2 T01610117
TAF: KAPC 251121Z 2512/2612 23007KT P6SM BKN007 FM251700 20012KT P6SM SKC FM260200 21009KT P6SM SCT200 FM261000 23007KT P6SM BKN007
Voir NOTAMs / SUP AIP / TFR affectant cet aéroport [VIEW]
Fréquences de communication: [VIEW]

Pistes:

Identifiant RWYQFULongueur (ft)Largeur (ft)SurfaceLDA (ft)
08248040ASPH
26248040ASPH

Coordonnées de l'aéroport

Adresse: Sonoma United States

Vue satellite de 0Q9